14°C Temp
11°C Dewpoint
82% Humidity
Temperature
8 KM/H
5 MPH
4 KTS
140°
South East

Wind Speed
Partly Cloudy
Conditions
Pressure 1015.22 (hPa) - 29.98 (in)
Visibility 8.7 (mi) - 14.0 (km)

Current Conditions
KSJC
Location 9(km)
Metar :KSJC 251353Z 14004KT 9SM FEW007 SCT014 14/11 A2998 RMK AO2 SLP151 T01390111
Sat 25th September 14:53 pm

Airport
  Metar Aviation API Data Provided by https://www.checkwx.com/ PHP scripts by weather34.com ©2021